KSEA/SEA METAR and TAF weather

Enter ICAO airport designator
Station Type Date Time Source
KSEA METAR 2019/12/12 09:05 UTC NOAA

KSEA 120905Z 20016G22KT 10SM SCT020 BKN026 OVC035 10/07 A2983 RMK AO2 T01000072


Station Type Date Time Source
KSEA Decoded METAR 2019/12/12 09:05 UTC NOAA

SEATTLE-TACOMA INTERNATIONAL AIRPORT , WA, United States (KSEA) 47-27N 122-19W 136M
Dec 12, 2019 - 04:05 AM EST / 2019.12.12 0905 UTC
Wind: from the SSW (200 degrees) at 18 MPH (16 KT) gusting to 25 MPH (22 KT):0
Visibility: 10 mile(s):0
Sky conditions: overcast
Temperature: 50.0 F (10.0 C)
Dew Point: 45.0 F (7.2 C)
Relative Humidity: 82%
Pressure (altimeter): 29.83 in. Hg (1010 hPa)
ob: KSEA 120905Z 20016G22KT 10SM SCT020 BKN026 OVC035 10/07 A2983 RMK AO2 T01000072
cycle: 9

Station Type Date Time Source
KSEA TAF 2019/12/12 09:06 UTC NOAA

TAF
AMD KSEA 120905Z 1209/1312 18015G20KT P6SM VCSH SCT025 BKN030 OVC040
FM121200 19010G18KT P6SM VCSH SCT025 SCT040
FM121800 18012G22KT P6SM -RA SCT020 OVC040
FM130200 19012G18KT P6SM -SHRA OVC030

Example: see airport list